Terminal Aerodrome Forecast
Issued by NWS Charleston, WV

Current Version | Previous Version | Graphics & Text | Print | Product List | Glossary On
Versions: 1 2 3 4 5 6 7 8 9 10 11 12 13 14 15 16 17 18 19 20 21 22 23
000
FTUS41 KRLX 011732
TAFCRW
TAF
KCRW 011732Z 0118/0218 20005KT P6SM SCT025 SCT100
     FM012100 24006KT 5SM -SHRA VCTS BKN040CB
     FM012200 23008G20KT 3SM SHRA VCTS BKN035CB
     FM020000 VRB03KT P6SM -SHRA VCTS BKN040CB
     FM021100 22004KT 3SM BR BKN014=

USA.gov is the U.S. government's official web portal to all federal, state and local government web resources and services.